Time;durP1;ratioP1;P1;durP2;ratioP2;P2;SDS_P1;SDS_P2;PMS_P1;PMS_P2;Temp;Humidity;BMP_temperature;BMP_pressure;BME280_temperature;BME280_humidity;BME280_pressure;Samples;Min_cycle;Max_cycle;Signal;HPM_P1;HPM_P2
2021/07/25 00:01:16;;;;;;;6.81;2.50;;;;;;;16.51;91.60;98654.75;2018228;77;51452;-74
2021/07/25 00:04:19;;;;;;;7.34;2.34;;;;;;;16.43;91.52;98664.69;2022366;80;20791;-73
2021/07/25 00:07:21;;;;;;;4.61;2.49;;;;;;;16.39;91.83;98663.13;2022450;80;20215;-73
2021/07/25 00:10:24;;;;;;;6.40;2.45;;;;;;;16.40;91.87;98659.56;2022485;80;20195;-74
2021/07/25 00:13:27;;;;;;;3.46;2.03;;;;;;;16.36;91.78;98658.84;2022883;80;20162;-74
2021/07/25 00:16:30;;;;;;;10.06;2.21;;;;;;;16.32;91.85;98659.84;2021604;77;45560;-74
2021/07/25 00:19:35;;;;;;;2.25;1.92;;;;;;;16.30;91.75;98657.31;2022660;80;20187;-73
2021/07/25 00:22:38;;;;;;;2.74;2.06;;;;;;;16.27;91.72;98657.44;2022735;80;20159;-74
2021/07/25 00:25:42;;;;;;;3.35;2.08;;;;;;;16.24;91.59;98657.56;2020780;80;20214;-74
2021/07/25 00:28:45;;;;;;;3.04;2.15;;;;;;;16.22;91.74;98656.75;2020882;80;20179;-73
2021/07/25 00:31:48;;;;;;;5.01;3.05;;;;;;;16.22;91.94;98669.88;2022030;77;41753;-73
2021/07/25 00:34:52;;;;;;;6.82;3.01;;;;;;;16.21;92.48;98673.41;2020942;80;20262;-73
2021/07/25 00:37:55;;;;;;;2.83;2.63;;;;;;;16.26;92.89;98667.97;2020980;80;20179;-74
2021/07/25 00:41:10;;;;;;;3.89;2.56;;;;;;;16.31;92.84;98666.00;2020672;80;20927;-73
2021/07/25 00:44:12;;;;;;;6.99;2.28;;;;;;;16.34;92.86;98660.69;2020934;80;20804;-74
2021/07/25 00:47:15;;;;;;;3.08;2.71;;;;;;;16.35;92.52;98661.53;2020276;77;23632;-73
2021/07/25 00:50:21;;;;;;;5.04;2.21;;;;;;;16.37;92.00;98660.56;2017220;80;20219;-74
2021/07/25 00:53:24;;;;;;;4.86;2.33;;;;;;;16.28;91.84;98658.28;2017495;80;20276;-74
2021/07/25 00:56:26;;;;;;;2.66;2.04;;;;;;;16.24;91.66;98651.47;2020791;80;20252;-74
2021/07/25 00:59:29;;;;;;;7.29;1.99;;;;;;;16.19;91.71;98658.66;2017202;80;20678;-74
2021/07/25 01:02:37;;;;;;;3.70;1.98;;;;;;;16.15;91.49;98667.53;2020046;76;27422;-74
2021/07/25 01:05:49;;;;;;;6.22;2.19;;;;;;;16.08;91.43;98655.59;2021153;80;20223;-74
2021/07/25 01:09:01;;;;;;;2.94;1.92;;;;;;;16.04;91.72;98660.09;2023385;80;20191;-74
2021/07/25 01:12:06;;;;;;;3.49;1.74;;;;;;;16.01;91.70;98658.44;2021892;80;20596;-74
2021/07/25 01:15:12;;;;;;;3.44;1.75;;;;;;;15.98;91.81;98657.72;2021713;80;20217;-74
2021/07/25 01:18:14;;;;;;;9.02;2.14;;;;;;;15.97;91.80;98658.59;2021419;77;33272;-74
2021/07/25 01:21:19;;;;;;;4.64;1.79;;;;;;;15.94;92.17;98659.56;2022290;80;20207;-74
2021/07/25 01:24:21;;;;;;;7.63;1.96;;;;;;;15.93;92.38;98657.88;2022087;80;20207;-74
2021/07/25 01:27:53;;;;;;;5.75;2.75;;;;;;;15.98;92.24;98657.72;2022386;80;20222;-74
2021/07/25 01:30:59;;;;;;;4.80;2.16;;;;;;;15.99;92.41;98660.28;2022510;80;20220;-74
2021/07/25 01:34:02;;;;;;;5.79;1.91;;;;;;;15.93;92.17;98660.50;2021293;77;63787;-73
2021/07/25 01:37:05;;;;;;;5.71;2.10;;;;;;;15.85;92.28;98656.47;2021681;79;21273;-74
2021/07/25 01:40:12;;;;;;;7.34;1.84;;;;;;;15.85;92.44;98656.47;2021748;80;20213;-73
2021/07/25 01:43:15;;;;;;;2.76;2.06;;;;;;;15.87;92.45;98655.50;2022152;80;20183;-74
2021/07/25 01:46:18;;;;;;;3.84;2.38;;;;;;;15.85;92.30;98652.09;2021238;77;51267;-74
2021/07/25 01:49:22;;;;;;;3.40;2.26;;;;;;;15.86;92.24;98652.94;2023005;80;20515;-74
2021/07/25 01:52:25;;;;;;;6.79;2.69;;;;;;;15.81;92.29;98657.50;2023299;80;20254;-74
2021/07/25 01:55:28;;;;;;;3.38;2.38;;;;;;;15.77;92.28;98663.72;2023591;80;20197;-74
2021/07/25 01:58:31;;;;;;;8.30;2.00;;;;;;;15.73;92.08;98655.16;2023475;80;20216;-74
2021/07/25 02:01:34;;;;;;;2.76;2.56;;;;;;;15.71;91.80;98656.97;2023141;77;22999;-74
2021/07/25 02:04:37;;;;;;;3.01;2.64;;;;;;;15.67;91.59;98658.00;2023430;80;21042;-74
2021/07/25 02:07:39;;;;;;;4.20;2.92;;;;;;;15.63;91.75;98651.19;2023977;80;20178;-74
2021/07/25 02:10:47;;;;;;;5.14;2.86;;;;;;;15.58;91.84;98646.06;2024638;80;21078;-73
2021/07/25 02:13:50;;;;;;;4.61;3.13;;;;;;;15.50;91.83;98649.88;2023107;80;20261;-74
2021/07/25 02:16:53;;;;;;;3.25;2.85;;;;;;;15.52;91.90;98645.44;2023520;77;43083;-74
2021/07/25 02:19:55;;;;;;;3.31;2.74;;;;;;;15.50;92.01;98650.72;2024850;80;20159;-74
2021/07/25 02:22:58;;;;;;;35.41;2.86;;;;;;;15.48;92.35;98642.09;2024574;80;20221;-74
2021/07/25 02:26:00;;;;;;;12.32;2.21;;;;;;;15.49;92.71;98643.78;2024969;80;20287;-74
2021/07/25 02:29:04;;;;;;;2.80;2.05;;;;;;;15.49;93.23;98640.31;2024504;80;20294;-73
2021/07/25 02:32:07;;;;;;;10.84;2.11;;;;;;;15.51;93.61;98636.75;2023402;77;34801;-73
2021/07/25 02:35:09;;;;;;;6.78;1.31;;;;;;;15.51;93.61;98639.34;2024086;80;20978;-74
2021/07/25 02:38:12;;;;;;;74.50;2.66;;;;;;;15.50;93.75;98639.41;2024842;80;20200;-74
2021/07/25 02:41:14;;;;;;;58.44;2.53;;;;;;;15.44;93.63;98650.97;2024276;79;20174;-74
2021/07/25 02:44:17;;;;;;;35.69;2.42;;;;;;;15.39;93.53;98653.72;2024624;80;20163;-74
2021/07/25 02:47:20;;;;;;;14.76;2.04;;;;;;;15.34;93.77;98650.44;2024067;77;34308;-74
2021/07/25 02:50:22;;;;;;;6.07;1.83;;;;;;;15.35;94.08;98656.50;2023881;80;20199;-74
2021/07/25 02:53:26;;;;;;;1.95;1.80;;;;;;;15.38;94.46;98659.00;2024902;80;20211;-74
2021/07/25 02:56:29;;;;;;;1.74;1.64;;;;;;;15.43;94.55;98662.31;2024332;80;20252;-74
2021/07/25 02:59:31;;;;;;;2.49;1.59;;;;;;;15.51;94.67;98664.66;2024390;80;20179;-74
2021/07/25 03:02:36;;;;;;;7.24;1.95;;;;;;;15.54;94.70;98668.03;2022505;77;73367;-74
2021/07/25 03:05:39;;;;;;;1.63;1.55;;;;;;;15.59;94.63;98678.34;2023309;80;20175;-74
2021/07/25 03:08:42;;;;;;;1.85;1.71;;;;;;;15.61;94.47;98666.91;2022953;80;20293;-74
2021/07/25 03:11:45;;;;;;;1.99;1.52;;;;;;;15.62;94.23;98671.25;2022538;80;20199;-74
2021/07/25 03:14:47;;;;;;;8.04;1.71;;;;;;;15.65;94.05;98671.16;2022995;80;20256;-74
2021/07/25 03:17:52;;;;;;;1.42;1.30;;;;;;;15.59;93.75;98668.72;2021881;77;30664;-74
2021/07/25 03:20:55;;;;;;;3.21;1.54;;;;;;;15.60;93.97;98670.44;2023384;80;20222;-73
2021/07/25 03:23:57;;;;;;;3.36;1.77;;;;;;;15.60;93.71;98678.28;2023430;80;20167;-73
2021/07/25 03:27:00;;;;;;;19.49;1.50;;;;;;;15.58;93.85;98671.38;2022608;80;20209;-74
2021/07/25 03:30:03;;;;;;;26.64;1.73;;;;;;;15.56;93.83;98678.44;2021848;80;20251;-74
2021/07/25 03:33:07;;;;;;;20.16;1.48;;;;;;;15.48;93.62;98670.88;2022770;76;23064;-74
2021/07/25 03:36:09;;;;;;;2.05;1.30;;;;;;;15.44;93.59;98677.13;2022773;80;20186;-74
2021/07/25 03:39:16;;;;;;;1.50;1.40;;;;;;;15.41;93.58;98669.34;2022531;80;20301;-73
2021/07/25 03:42:19;;;;;;;1.60;1.42;;;;;;;15.37;93.68;98673.00;2022696;80;20155;-74
2021/07/25 03:45:23;;;;;;;5.53;1.94;;;;;;;15.40;93.94;98670.28;2021789;77;35256;-74
2021/07/25 03:48:26;;;;;;;6.14;1.76;;;;;;;15.43;94.06;98665.78;2022410;80;20660;-73
2021/07/25 03:51:30;;;;;;;7.28;1.83;;;;;;;15.44;94.02;98666.66;2022701;80;20232;-76
2021/07/25 03:54:34;;;;;;;16.67;2.36;;;;;;;15.45;94.16;98668.38;2022980;80;20192;-74
2021/07/25 03:57:37;;;;;;;2.16;2.03;;;;;;;15.46;94.03;98667.47;2022744;80;20632;-74
2021/07/25 04:00:40;;;;;;;3.46;2.29;;;;;;;15.45;94.12;98670.97;2021487;77;57504;-74
2021/07/25 04:03:43;;;;;;;2.83;2.25;;;;;;;15.49;94.30;98662.09;2023192;80;20610;-73
2021/07/25 04:06:45;;;;;;;2.81;2.44;;;;;;;15.52;94.41;98663.75;2023173;80;20194;-73
2021/07/25 04:09:48;;;;;;;4.43;3.58;;;;;;;15.54;94.47;98667.16;2022763;80;20724;-74
2021/07/25 04:12:51;;;;;;;8.45;4.01;;;;;;;15.59;94.50;98666.13;2023213;80;20159;-73
2021/07/25 04:15:53;;;;;;;64.59;4.31;;;;;;;15.63;94.72;98669.50;2020678;77;36529;-73
2021/07/25 04:18:57;;;;;;;4.11;3.80;;;;;;;15.60;94.63;98673.06;2022602;80;20167;-74
2021/07/25 04:21:59;;;;;;;5.18;4.68;;;;;;;15.62;95.14;98671.25;2022546;80;20276;-73
2021/07/25 04:25:06;;;;;;;10.86;5.31;;;;;;;15.68;95.31;98675.41;2022489;80;20179;-74
2021/07/25 04:28:10;;;;;;;21.39;5.93;;;;;;;15.75;95.51;98679.50;2022177;80;20243;-73
2021/07/25 04:31:13;;;;;;;19.08;6.81;;;;;;;15.80;95.60;98680.22;2022127;77;25456;-73
2021/07/25 04:34:16;;;;;;;6.81;6.21;;;;;;;15.68;96.01;98676.25;2022774;80;20252;-73
2021/07/25 04:37:24;;;;;;;10.21;6.99;;;;;;;15.71;96.58;98689.22;2021373;80;20215;-73
2021/07/25 04:40:27;;;;;;;8.00;7.17;;;;;;;15.78;96.62;98683.75;2021478;80;20554;-74
2021/07/25 04:43:30;;;;;;;11.54;8.00;;;;;;;15.85;96.58;98693.97;2021074;80;20155;-73
2021/07/25 04:46:38;;;;;;;11.64;9.36;;;;;;;15.93;96.57;98696.28;2019643;77;28397;-73
2021/07/25 04:49:56;;;;;;;11.65;9.41;;;;;;;15.98;96.38;98694.38;2020845;80;20252;-73
2021/07/25 04:53:01;;;;;;;12.57;9.41;;;;;;;16.02;96.39;98690.72;2020844;80;20171;-73
2021/07/25 04:56:04;;;;;;;16.92;10.35;;;;;;;16.06;96.33;98700.16;2020692;80;20174;-73
2021/07/25 04:59:14;;;;;;;14.65;10.25;;;;;;;16.10;96.30;98701.75;2024370;80;20324;-73
2021/07/25 05:02:19;;;;;;;12.84;10.25;;;;;;;16.14;96.25;98700.72;2019914;77;35455;-73
2021/07/25 05:05:23;;;;;;;13.94;10.91;;;;;;;16.19;96.29;98701.41;2020704;80;20926;-74
2021/07/25 05:08:25;;;;;;;13.10;10.18;;;;;;;16.22;96.26;98703.91;2021446;80;20857;-73
2021/07/25 05:11:39;;;;;;;19.15;10.80;;;;;;;16.24;95.88;98703.84;2021089;80;20313;-73
2021/07/25 05:14:46;;;;;;;17.61;11.09;;;;;;;16.28;96.23;98697.56;2021414;80;20212;-74
2021/07/25 05:17:59;;;;;;;14.51;10.81;;;;;;;16.39;96.09;98707.66;2019977;77;24462;-73
2021/07/25 05:21:23;;;;;;;14.39;10.26;;;;;;;16.50;96.02;98693.19;2020824;80;20183;-73
2021/07/25 05:24:27;;;;;;;15.66;10.93;;;;;;;16.74;95.93;98694.03;2022153;80;20239;-72
2021/07/25 05:27:38;;;;;;;13.18;10.84;;;;;;;16.91;95.38;98694.19;2021018;80;20231;-72
2021/07/25 05:30:43;;;;;;;14.02;11.18;;;;;;;16.96;94.60;98694.00;2021370;77;22353;-72
2021/07/25 05:33:46;;;;;;;14.75;11.16;;;;;;;17.03;94.73;98695.44;2021696;80;20179;-73
2021/07/25 05:36:49;;;;;;;17.11;10.71;;;;;;;17.10;94.28;98688.19;2021059;80;20227;-72
2021/07/25 05:39:51;;;;;;;16.08;10.43;;;;;;;17.13;93.74;98683.66;2022654;80;20220;-72
2021/07/25 05:42:54;;;;;;;15.52;11.16;;;;;;;17.17;93.16;98679.13;2021429;80;20208;-72
2021/07/25 05:45:56;;;;;;;13.94;9.89;;;;;;;17.19;92.68;98686.00;2022454;76;21219;-72
2021/07/25 05:48:59;;;;;;;13.65;10.20;;;;;;;17.22;92.38;98688.50;2023882;80;20199;-72
2021/07/25 05:52:02;;;;;;;14.16;10.50;;;;;;;17.25;92.33;98691.94;2022867;80;20205;-73
2021/07/25 05:55:05;;;;;;;12.38;10.32;;;;;;;17.30;92.27;98693.44;2023319;80;20204;-73
2021/07/25 05:58:07;;;;;;;11.64;9.65;;;;;;;17.32;92.03;98693.38;2023628;80;20701;-72
2021/07/25 06:01:10;;;;;;;12.54;10.10;;;;;;;17.41;92.04;98703.47;2022034;78;21295;-73
2021/07/25 06:04:12;;;;;;;14.18;9.45;;;;;;;17.51;91.98;98695.13;2023106;80;20167;-72
2021/07/25 06:07:15;;;;;;;12.14;8.82;;;;;;;17.55;91.79;98698.47;2022965;80;20195;-73
2021/07/25 06:10:19;;;;;;;12.91;8.93;;;;;;;17.59;91.71;98701.81;2023297;80;20820;-73
2021/07/25 06:13:21;;;;;;;14.68;9.10;;;;;;;17.70;91.54;98699.59;2022500;80;20179;-72
2021/07/25 06:16:24;;;;;;;11.55;8.96;;;;;;;17.75;91.50;98692.38;2022591;76;20191;-73
2021/07/25 06:19:27;;;;;;;11.56;8.84;;;;;;;17.83;91.27;98694.66;2023229;80;20665;-72
2021/07/25 06:22:44;;;;;;;11.27;8.66;;;;;;;17.81;90.65;98694.75;2023242;80;20943;-73
2021/07/25 06:25:47;;;;;;;9.56;8.19;;;;;;;17.79;90.55;98692.19;2022918;80;20167;-72
2021/07/25 06:28:51;;;;;;;16.83;8.40;;;;;;;17.84;90.32;98693.75;2022696;80;20194;-73
2021/07/25 06:31:53;;;;;;;14.86;8.79;;;;;;;17.88;90.43;98690.91;2021753;77;24870;-73
2021/07/25 06:34:56;;;;;;;9.52;8.14;;;;;;;17.91;90.33;98695.16;2023582;80;20212;-74
2021/07/25 06:38:01;;;;;;;10.23;8.51;;;;;;;17.92;90.23;98694.25;2023290;80;20228;-73
2021/07/25 06:41:04;;;;;;;7.68;6.97;;;;;;;17.96;90.45;98694.06;2023347;80;20189;-73
2021/07/25 06:44:07;;;;;;;8.30;7.06;;;;;;;18.03;89.44;98699.88;2023452;80;20197;-72
2021/07/25 06:47:09;;;;;;;9.06;7.94;;;;;;;18.02;88.50;98699.03;2022877;79;23881;-73
2021/07/25 06:50:12;;;;;;;8.00;7.30;;;;;;;18.10;88.60;98698.66;2023082;80;20191;-73
2021/07/25 06:53:16;;;;;;;9.07;7.39;;;;;;;18.14;88.37;98696.75;2022804;80;20239;-77
2021/07/25 06:56:19;;;;;;;10.32;7.59;;;;;;;18.17;87.79;98700.09;2022946;80;20686;-73
2021/07/25 06:59:22;;;;;;;9.68;6.99;;;;;;;18.28;88.14;98704.84;2023528;80;20217;-73
2021/07/25 07:02:25;;;;;;;8.15;6.75;;;;;;;18.50;88.02;98708.19;2021756;78;23034;-73
2021/07/25 07:05:31;;;;;;;10.14;6.91;;;;;;;18.83;87.10;98705.72;2023136;80;20175;-74
2021/07/25 07:08:37;;;;;;;8.66;6.07;;;;;;;19.15;86.10;98705.91;2023300;80;20163;-72
2021/07/25 07:11:40;;;;;;;12.04;5.91;;;;;;;19.49;83.31;98712.94;2023017;80;20210;-72
2021/07/25 07:14:42;;;;;;;6.80;5.85;;;;;;;19.64;82.05;98714.81;2023490;80;20737;-72
2021/07/25 07:17:48;;;;;;;8.21;6.15;;;;;;;19.78;81.17;98709.69;2022118;77;20183;-72
2021/07/25 07:20:50;;;;;;;7.96;5.54;;;;;;;20.11;80.92;98711.47;2022691;80;20206;-74
2021/07/25 07:23:54;;;;;;;6.68;5.22;;;;;;;20.66;79.71;98708.44;2023277;80;20265;-72
2021/07/25 07:26:56;;;;;;;6.76;4.32;;;;;;;21.55;77.11;98714.72;2022652;80;20156;-72
2021/07/25 07:30:03;;;;;;;4.13;3.83;;;;;;;22.25;73.12;98705.94;2022173;80;20202;-72
2021/07/25 07:33:14;;;;;;;5.05;3.80;;;;;;;22.76;70.38;98708.88;2020357;77;20199;-73
2021/07/25 07:36:17;;;;;;;5.34;3.95;;;;;;;23.04;67.30;98715.88;2022820;80;20815;-72
2021/07/25 07:39:19;;;;;;;5.34;4.28;;;;;;;23.21;67.39;98725.38;2022330;80;20185;-73
2021/07/25 07:42:22;;;;;;;9.74;3.96;;;;;;;23.63;66.10;98726.94;2020801;80;20690;-73
2021/07/25 07:45:26;;;;;;;7.97;3.56;;;;;;;23.52;65.20;98726.81;2019422;77;20268;-73
2021/07/25 07:48:28;;;;;;;3.13;2.76;;;;;;;23.04;66.38;98734.44;2021385;80;20179;-73
2021/07/25 07:51:31;;;;;;;3.22;2.75;;;;;;;23.38;65.72;98726.91;2021083;80;20174;-73
2021/07/25 07:54:34;;;;;;;4.19;2.64;;;;;;;23.43;65.12;98715.03;2021204;80;20203;-73
2021/07/25 07:57:37;;;;;;;3.26;2.60;;;;;;;23.71;65.36;98724.63;2022642;80;20212;-73
2021/07/25 08:00:40;;;;;;;5.40;2.65;;;;;;;23.89;64.21;98729.63;2021624;77;25027;-74
2021/07/25 08:03:42;;;;;;;3.46;2.74;;;;;;;23.18;63.48;98733.53;2022330;80;20269;-73
2021/07/25 08:06:48;;;;;;;4.95;2.15;;;;;;;23.59;64.82;98729.91;2022264;80;20271;-74
2021/07/25 08:09:50;;;;;;;4.78;2.10;;;;;;;24.25;63.65;98731.50;2022668;80;20196;-75
2021/07/25 08:12:53;;;;;;;2.13;1.84;;;;;;;24.76;60.44;98726.91;2021725;80;20167;-75
2021/07/25 08:15:55;;;;;;;3.06;2.05;;;;;;;25.18;59.11;98722.94;2021890;77;20224;-75
2021/07/25 08:18:58;;;;;;;3.78;2.10;;;;;;;25.41;57.13;98717.69;2022750;80;20203;-75
2021/07/25 08:22:02;;;;;;;2.29;1.90;;;;;;;25.68;59.36;98717.44;2022291;80;20268;-77
2021/07/25 08:25:05;;;;;;;2.25;2.04;;;;;;;25.98;57.28;98717.69;2022655;80;20194;-75
2021/07/25 08:28:07;;;;;;;2.97;1.86;;;;;;;26.30;56.40;98719.63;2022278;80;20163;-73
2021/07/25 08:31:10;;;;;;;3.28;2.09;;;;;;;26.60;54.54;98722.53;2021690;77;20198;-77
2021/07/25 08:34:13;;;;;;;3.96;1.89;;;;;;;26.89;53.77;98719.28;2023100;80;20171;-77
2021/07/25 08:37:15;;;;;;;5.19;1.90;;;;;;;26.69;54.36;98715.59;2023119;80;20210;-78
2021/07/25 08:40:21;;;;;;;2.21;1.74;;;;;;;26.09;54.41;98708.88;2022310;80;20179;-78
2021/07/25 08:43:32;;;;;;;7.90;2.25;;;;;;;25.74;55.42;98711.63;2022838;80;20204;-77
2021/07/25 08:46:35;;;;;;;4.53;1.74;;;;;;;25.76;55.35;98707.88;2022626;77;21952;-76
2021/07/25 08:50:08;;;;;;;2.21;1.83;;;;;;;25.84;57.19;98707.28;2023156;80;20261;-77
2021/07/25 08:53:16;;;;;;;4.63;1.91;;;;;;;25.91;55.89;98703.19;2022599;80;20731;-77
2021/07/25 08:56:19;;;;;;;3.72;1.98;;;;;;;25.90;54.17;98706.81;2023573;80;20166;-72
2021/07/25 08:59:24;;;;;;;2.40;1.51;;;;;;;25.96;54.90;98706.31;2022883;80;20300;-75
2021/07/25 09:02:29;;;;;;;5.95;2.19;;;;;;;25.88;54.60;98704.28;2022629;76;21000;-75
2021/07/25 09:05:33;;;;;;;3.50;1.86;;;;;;;26.00;56.46;98707.75;2022781;80;20159;-75
2021/07/25 09:08:37;;;;;;;3.58;1.75;;;;;;;25.98;56.60;98707.03;2022944;80;20216;-76
2021/07/25 09:11:39;;;;;;;2.25;1.52;;;;;;;25.95;57.18;98709.94;2024744;80;20717;-79
2021/07/25 09:14:52;;;;;;;3.28;1.81;;;;;;;25.67;55.94;98713.00;2023909;80;20221;-74
2021/07/25 09:18:00;;;;;;;5.36;1.99;;;;;;;25.61;56.47;98715.19;2022560;77;22245;-76
2021/07/25 09:21:03;;;;;;;2.63;1.74;;;;;;;25.30;56.94;98713.16;2023402;80;20244;-76
2021/07/25 09:24:20;;;;;;;8.23;1.95;;;;;;;25.24;57.93;98716.28;2023177;80;20884;-76
2021/07/25 09:27:23;;;;;;;2.90;1.47;;;;;;;25.41;58.28;98713.22;2022997;80;20260;-76
2021/07/25 09:30:30;;;;;;;4.50;1.67;;;;;;;25.76;58.73;98712.34;2021765;77;21152;-77
2021/07/25 09:33:33;;;;;;;1.58;1.38;;;;;;;25.70;55.75;98704.84;2023059;80;20187;-76
2021/07/25 09:36:37;;;;;;;7.11;1.60;;;;;;;25.97;55.63;98707.16;2022026;80;20224;-76
2021/07/25 09:39:46;;;;;;;2.66;1.63;;;;;;;26.28;55.07;98703.78;2022780;80;20175;-75
2021/07/25 09:42:49;;;;;;;5.03;2.00;;;;;;;26.21;54.61;98705.22;2022777;80;20211;-75
2021/07/25 09:45:53;;;;;;;3.79;1.61;;;;;;;25.84;54.34;98708.13;2021690;80;23012;-76
2021/07/25 09:48:57;;;;;;;3.30;1.40;;;;;;;25.39;55.51;98701.00;2022808;80;20187;-75
2021/07/25 09:52:07;;;;;;;4.91;1.61;;;;;;;25.17;57.50;98715.91;2022953;80;20155;-76
2021/07/25 09:55:09;;;;;;;4.11;1.30;;;;;;;24.87;57.88;98723.47;2022686;80;20773;-76
2021/07/25 09:58:12;;;;;;;2.85;1.61;;;;;;;24.40;59.68;98709.19;2022888;80;20163;-76
2021/07/25 10:01:38;;;;;;;1.89;1.44;;;;;;;24.24;61.11;98705.94;2021596;77;20187;-76
2021/07/25 10:04:41;;;;;;;4.20;1.50;;;;;;;24.46;59.99;98703.44;2023106;79;20747;-76
2021/07/25 10:07:46;;;;;;;5.16;1.40;;;;;;;24.34;58.07;98710.47;2022286;80;20201;-75
2021/07/25 10:10:51;;;;;;;4.32;1.83;;;;;;;24.37;59.94;98709.41;2022349;80;20235;-75
2021/07/25 10:13:56;;;;;;;2.84;1.42;;;;;;;24.38;58.16;98703.13;2022822;80;20220;-76
2021/07/25 10:17:01;;;;;;;2.75;1.46;;;;;;;24.32;58.73;98700.94;2021845;77;21060;-76
2021/07/25 10:20:09;;;;;;;3.56;1.30;;;;;;;24.30;57.27;98697.53;2023252;80;20225;-76
2021/07/25 10:23:14;;;;;;;1.64;1.02;;;;;;;24.29;59.53;98695.84;2022559;80;20179;-76
2021/07/25 10:26:18;;;;;;;2.75;1.36;;;;;;;24.20;58.23;98688.50;2023297;80;20191;-76
2021/07/25 10:29:24;;;;;;;1.98;1.33;;;;;;;24.01;58.90;98683.66;2021807;80;20321;-76
2021/07/25 10:32:28;;;;;;;8.11;1.71;;;;;;;23.85;60.25;98691.84;2020390;78;22990;-77
2021/07/25 10:35:31;;;;;;;4.32;1.35;;;;;;;23.60;62.77;98691.84;2022578;80;20195;-75
2021/07/25 10:38:35;;;;;;;5.85;2.21;;;;;;;23.36;66.14;98687.25;2027703;80;20971;-81
2021/07/25 10:42:06;;;;;;;6.15;1.64;;;;;;;23.02;67.28;98682.53;2031834;80;20277;-82
2021/07/25 12:08:11;;;;;;;2.35;1.80;;;;;;;22.39;75.68;98657.47;2004516;70;20219;-81
2021/07/25 12:11:19;;;;;;;3.70;2.42;;;;;;;22.09;75.59;98659.44;2001320;81;20636;-77
2021/07/25 12:14:28;;;;;;;5.42;2.84;;;;;;;21.84;76.49;98657.44;1992686;81;20242;-73
2021/07/25 12:17:44;;;;;;;3.85;3.09;;;;;;;21.61;77.41;98675.56;1988930;77;20301;-74
2021/07/25 12:20:46;;;;;;;5.09;1.96;;;;;;;21.36;78.82;98721.09;1999849;81;20218;-83
2021/07/25 12:23:49;;;;;;;9.06;1.52;;;;;;;21.03;76.18;98737.09;1993615;81;20183;-79
2021/07/25 12:26:52;;;;;;;8.01;2.13;;;;;;;20.43;74.36;98730.81;1990936;80;20244;-79
2021/07/25 12:30:14;;;;;;;5.39;1.30;;;;;;;19.95;75.17;98737.78;1994092;81;20276;-84
2021/07/25 12:33:33;;;;;;;8.66;1.63;;;;;;;19.28;75.88;98728.06;1996659;77;20501;-78
2021/07/25 12:36:42;;;;;;;7.69;1.01;;;;;;;18.93;78.47;98732.44;1985060;81;20198;-76
2021/07/25 12:39:45;;;;;;;;;;;;;;;18.64;78.88;98747.81;1985718;80;20191;-78
2021/07/25 12:46:28;;;;;;;3.13;1.00;;;;;;;18.39;81.01;98749.88;2028698;71;227015;-83
2021/07/25 12:49:31;;;;;;;5.10;0.95;;;;;;;18.24;82.60;98750.59;1999652;81;20270;-84
2021/07/25 12:52:34;;;;;;;5.19;1.10;;;;;;;18.33;83.63;98745.78;1998350;81;20240;-81
2021/07/25 12:55:37;;;;;;;2.00;0.80;;;;;;;18.56;84.72;98730.69;2004043;81;20198;-84
2021/07/25 12:58:42;;;;;;;3.25;1.01;;;;;;;18.79;84.94;98719.94;2000745;81;20199;-84
2021/07/25 13:04:48;;;;;;;3.60;0.77;;;;;;;19.71;85.95;98689.84;2002825;81;20312;-87
2021/07/25 13:07:50;;;;;;;4.30;0.96;;;;;;;20.06;85.52;98687.13;2003505;81;20179;-83
2021/07/25 13:10:53;;;;;;;2.38;0.76;;;;;;;20.63;85.00;98698.03;2000419;81;20302;-81
2021/07/25 13:14:00;;;;;;;1.33;0.76;;;;;;;21.17;83.20;98688.72;1998536;81;20228;-81
2021/07/25 13:17:03;;;;;;;2.25;0.70;;;;;;;21.60;81.00;98679.16;1994399;78;21576;-81
2021/07/25 13:20:06;;;;;;;4.13;0.90;;;;;;;22.03;79.70;98665.91;1993017;80;20167;-80
2021/07/25 13:23:09;;;;;;;3.69;0.80;;;;;;;22.44;78.41;98665.97;1997428;81;20505;-81
2021/07/25 13:26:13;;;;;;;1.06;0.61;;;;;;;22.76;76.75;98657.72;1997350;81;20264;-81
2021/07/25 13:29:15;;;;;;;2.54;0.74;;;;;;;23.06;75.71;98661.03;1996685;81;20172;-80
2021/07/25 13:32:18;;;;;;;3.13;0.90;;;;;;;23.40;74.76;98662.25;1995020;77;22969;-80
2021/07/25 13:35:22;;;;;;;4.53;0.80;;;;;;;23.69;73.54;98662.88;1994007;80;20305;-80
2021/07/25 13:38:25;;;;;;;0.76;0.60;;;;;;;23.70;71.43;98658.47;1993040;81;20730;-79
2021/07/25 13:41:28;;;;;;;1.30;0.70;;;;;;;23.83;69.76;98661.94;1990827;81;20905;-79
2021/07/25 13:44:30;;;;;;;1.84;0.70;;;;;;;23.74;66.49;98657.28;1994081;81;20187;-79
2021/07/25 13:47:33;;;;;;;1.60;0.60;;;;;;;23.77;65.68;98665.03;1992368;77;21413;-79
2021/07/25 13:50:36;;;;;;;0.65;0.60;;;;;;;23.62;66.70;98668.75;1992463;81;20213;-78
2021/07/25 13:53:40;;;;;;;1.69;0.70;;;;;;;23.43;65.69;98672.63;1991781;81;20191;-78
2021/07/25 13:56:46;;;;;;;1.79;0.79;;;;;;;23.74;66.51;98673.19;1991981;81;20244;-78
2021/07/25 13:59:48;;;;;;;2.15;0.56;;;;;;;24.33;66.90;98682.25;1991756;81;20268;-80
2021/07/25 14:02:51;;;;;;;0.98;0.76;;;;;;;24.74;64.91;98675.72;1998059;78;27443;-79
2021/07/25 14:05:55;;;;;;;2.15;0.73;;;;;;;24.66;64.86;98672.78;1997698;81;20201;-80
2021/07/25 14:08:57;;;;;;;0.70;0.70;;;;;;;24.46;66.03;98660.13;1998907;81;20207;-80
2021/07/25 14:12:21;;;;;;;1.42;0.70;;;;;;;24.31;66.80;98662.94;1995922;81;20257;-79
2021/07/25 14:15:34;;;;;;;0.82;0.70;;;;;;;24.36;66.28;98654.63;1990793;81;20698;-73
2021/07/25 14:18:37;;;;;;;1.05;0.63;;;;;;;24.54;65.97;98655.09;1991447;81;20217;-74
2021/07/25 14:21:44;;;;;;;0.61;0.61;;;;;;;24.71;66.03;98655.56;1990722;80;20411;-74
2021/07/25 14:24:47;;;;;;;1.50;0.60;;;;;;;25.22;65.70;98657.94;1991029;81;20203;-74
2021/07/25 14:27:49;;;;;;;0.64;0.50;;;;;;;25.50;61.08;98647.88;1990830;81;20187;-74
2021/07/25 14:30:53;;;;;;;2.75;0.68;;;;;;;25.84;60.22;98648.75;1989543;77;22358;-73
2021/07/25 14:33:56;;;;;;;1.81;0.80;;;;;;;25.93;58.93;98640.06;1991225;81;20751;-73
2021/07/25 14:36:59;;;;;;;1.33;0.70;;;;;;;25.89;59.72;98628.81;1991491;81;20233;-73
2021/07/25 14:40:06;;;;;;;0.60;0.60;;;;;;;26.14;59.37;98627.69;1990819;81;20629;-73
2021/07/25 14:43:09;;;;;;;0.62;0.62;;;;;;;26.32;56.86;98622.69;1991293;81;20940;-74
2021/07/25 14:46:11;;;;;;;1.36;0.80;;;;;;;26.56;55.44;98616.38;1990008;78;24139;-73
2021/07/25 14:49:14;;;;;;;0.59;0.59;;;;;;;26.57;53.64;98610.94;1991732;81;20767;-73
2021/07/25 14:52:17;;;;;;;0.98;0.60;;;;;;;26.70;55.28;98608.94;1991131;81;20307;-73
2021/07/25 14:55:20;;;;;;;1.86;0.64;;;;;;;26.83;53.29;98599.94;1990577;81;20268;-74
2021/07/25 14:58:22;;;;;;;1.08;0.69;;;;;;;26.72;52.83;98598.16;1990815;81;20179;-73
2021/07/25 15:01:25;;;;;;;1.27;0.70;;;;;;;26.64;53.11;98592.63;1989940;80;20260;-77
2021/07/25 15:04:29;;;;;;;0.77;0.66;;;;;;;26.25;58.00;98599.38;1998884;80;20191;-85
2021/07/25 15:07:32;;;;;;;0.91;0.63;;;;;;;26.02;55.38;98593.22;2003309;81;20228;-83
2021/07/25 15:10:39;;;;;;;1.14;0.76;;;;;;;25.86;56.02;98607.78;2004605;81;20184;-83
2021/07/25 15:13:43;;;;;;;0.70;0.69;;;;;;;25.64;55.61;98590.94;2007701;81;20175;-83
2021/07/25 15:16:45;;;;;;;2.60;0.73;;;;;;;25.42;56.12;98592.63;2002163;77;21258;-85
2021/07/25 15:19:49;;;;;;;1.33;0.74;;;;;;;25.24;56.12;98586.09;2001516;81;20171;-83
2021/07/25 15:22:51;;;;;;;0.69;0.69;;;;;;;25.16;57.25;98591.16;2002219;81;20171;-83
2021/07/25 15:25:54;;;;;;;2.89;0.80;;;;;;;25.13;57.03;98612.63;2000712;81;20229;-82
2021/07/25 15:28:56;;;;;;;3.13;0.70;;;;;;;25.36;58.73;98602.91;2000907;81;20185;-82
2021/07/25 15:31:59;;;;;;;1.16;0.80;;;;;;;25.68;56.85;98595.09;2000913;81;20208;-80
2021/07/25 15:35:02;;;;;;;2.49;0.79;;;;;;;25.67;53.40;98604.84;1999392;81;20529;-80
2021/07/25 15:38:05;;;;;;;1.80;0.66;;;;;;;25.78;55.00;98591.56;2001179;81;20531;-80
2021/07/25 15:41:07;;;;;;;3.16;0.80;;;;;;;25.85;55.46;98587.47;1997606;81;20254;-81
2021/07/25 15:44:10;;;;;;;0.86;0.61;;;;;;;26.22;56.55;98584.50;1993792;81;20608;-80
2021/07/25 15:47:32;;;;;;;1.26;0.79;;;;;;;26.52;53.40;98594.47;1991428;77;33622;-79
2021/07/25 15:50:35;;;;;;;1.52;0.80;;;;;;;26.56;52.44;98587.91;1990680;81;20282;-80
2021/07/25 15:53:38;;;;;;;1.10;0.71;;;;;;;26.52;51.83;98577.66;1991381;81;20197;-78
2021/07/25 15:56:44;;;;;;;2.72;0.99;;;;;;;26.25;52.90;98583.41;1994649;81;20248;-80